createdAt,value
2018-11-14T00:01:45.629Z,2.53
2018-11-14T00:06:48.813Z,2.97
2018-11-14T00:11:51.969Z,3.17
2018-11-14T00:16:55.160Z,2.20
2018-11-14T00:21:58.353Z,2.83
2018-11-14T00:27:01.623Z,2.50
2018-11-14T00:32:04.903Z,2.70
2018-11-14T00:37:08.047Z,2.53
2018-11-14T00:42:11.181Z,2.53
2018-11-14T00:47:14.317Z,2.27
2018-11-14T00:52:17.530Z,2.73
2018-11-14T00:57:20.672Z,2.90
2018-11-14T01:02:23.825Z,3.00
2018-11-14T01:07:26.973Z,3.63
2018-11-14T01:12:30.224Z,2.63
2018-11-14T01:17:33.365Z,2.63
2018-11-14T01:22:36.625Z,2.30
2018-11-14T01:27:39.767Z,2.73
2018-11-14T01:32:43.618Z,2.90
2018-11-14T01:37:46.777Z,2.80
2018-11-14T01:42:51.165Z,2.90
2018-11-14T01:47:54.309Z,2.67
2018-11-14T01:52:57.490Z,3.47
2018-11-14T01:58:00.710Z,3.47
2018-11-14T02:03:03.853Z,2.90
2018-11-14T02:08:07.131Z,2.90
2018-11-14T02:13:10.289Z,3.10
2018-11-14T02:18:13.446Z,2.90
2018-11-14T02:23:16.649Z,3.43
2018-11-14T02:28:19.878Z,2.73
2018-11-14T02:33:23.065Z,2.73
2018-11-14T02:38:26.295Z,3.27
2018-11-14T02:43:29.388Z,3.43
2018-11-14T02:48:32.599Z,2.93
2018-11-14T02:53:35.758Z,3.50
2018-11-14T02:58:38.939Z,3.80
2018-11-14T03:03:42.176Z,3.53
2018-11-14T03:08:45.413Z,3.40
2018-11-14T03:13:48.553Z,3.97
2018-11-14T03:18:51.690Z,3.43
2018-11-14T03:23:54.818Z,3.50
2018-11-14T03:28:57.954Z,3.47
2018-11-14T03:34:01.158Z,3.90
2018-11-14T03:39:06.678Z,3.23
2018-11-14T03:44:09.788Z,4.00
2018-11-14T03:49:12.934Z,3.83
2018-11-14T03:54:16.101Z,3.73
2018-11-14T03:59:19.250Z,3.80
2018-11-14T04:04:22.394Z,3.50
2018-11-14T04:09:25.637Z,3.87
2018-11-14T04:14:28.654Z,3.93
2018-11-14T04:19:31.882Z,4.13
2018-11-14T04:24:35.117Z,4.17
2018-11-14T04:29:38.290Z,3.60
2018-11-14T04:34:41.492Z,3.30
2018-11-14T04:39:44.642Z,3.43
2018-11-14T04:44:47.825Z,5.13
2018-11-14T04:49:51.062Z,3.40
2018-11-14T04:54:54.208Z,4.23
2018-11-14T04:59:57.373Z,3.87
2018-11-14T17:23:19.187Z,3.00
2018-11-14T17:28:22.650Z,2.67
2018-11-14T17:33:25.855Z,3.07
2018-11-14T17:38:29.525Z,2.90
2018-11-14T17:43:33.622Z,3.87
2018-11-14T17:48:36.770Z,3.50
2018-11-14T17:53:41.107Z,3.00
2018-11-14T17:58:44.294Z,2.80
2018-11-14T18:03:47.533Z,2.97
2018-11-14T18:08:51.193Z,5.43
2018-11-14T18:13:54.363Z,8.17
2018-11-14T18:18:57.599Z,10.73
2018-11-14T18:24:00.918Z,8.13
2018-11-14T18:29:04.105Z,7.87
2018-11-14T18:34:07.258Z,10.57
2018-11-14T18:39:12.461Z,4.47
2018-11-14T18:44:15.737Z,13.43
2018-11-14T18:49:18.999Z,6.40
2018-11-14T18:54:22.245Z,4.73
2018-11-14T18:59:25.510Z,4.00
2018-11-14T19:04:28.721Z,3.80
2018-11-14T19:09:31.999Z,3.47
2018-11-14T19:14:35.270Z,3.00
2018-11-14T19:19:38.474Z,3.17
2018-11-14T19:24:41.798Z,2.80
2018-11-14T19:29:44.845Z,2.83
2018-11-14T19:34:48.082Z,3.07
2018-11-14T19:39:51.354Z,3.87
2018-11-14T19:44:54.609Z,3.27
2018-11-14T19:49:57.814Z,3.33
2018-11-14T19:55:01.067Z,3.77
2018-11-14T20:00:04.997Z,3.03
2018-11-14T20:05:09.175Z,2.63
2018-11-14T20:10:13.992Z,3.03
2018-11-14T20:15:18.561Z,2.43
2018-11-14T20:20:23.210Z,2.50
2018-11-14T20:25:26.452Z,2.63
2018-11-14T20:30:31.094Z,2.30
2018-11-14T20:35:34.254Z,2.47
2018-11-14T20:40:40.022Z,2.80
2018-11-14T20:45:43.246Z,2.30
2018-11-14T20:50:46.373Z,2.60
2018-11-14T20:55:49.646Z,2.77
2018-11-14T21:00:52.777Z,3.60
2018-11-14T21:05:55.981Z,3.30
2018-11-14T21:10:59.230Z,3.20
2018-11-14T21:16:02.552Z,3.07
2018-11-14T21:21:05.762Z,3.23
2018-11-14T21:26:08.910Z,3.47
2018-11-14T21:31:12.151Z,3.77
2018-11-14T21:36:15.300Z,3.60
2018-11-14T21:41:18.493Z,4.00
2018-11-14T21:46:21.799Z,3.80
2018-11-14T21:51:25.044Z,4.40
2018-11-14T21:56:28.234Z,4.43
2018-11-14T22:01:31.401Z,3.90
2018-11-14T22:06:34.773Z,3.97
2018-11-14T22:11:38.334Z,4.67
2018-11-14T22:16:41.554Z,4.77
2018-11-14T22:21:44.768Z,4.50
2018-11-14T22:26:48.038Z,4.93
2018-11-14T22:31:51.191Z,5.10
2018-11-14T22:36:54.406Z,5.07
2018-11-14T22:41:57.654Z,5.30
2018-11-14T22:47:00.837Z,5.50
2018-11-14T22:52:04.018Z,4.73
2018-11-14T22:57:07.250Z,6.00
2018-11-14T23:02:10.401Z,4.77
2018-11-14T23:07:13.581Z,5.47
2018-11-14T23:12:16.796Z,4.57
2018-11-14T23:17:19.973Z,4.67
2018-11-14T23:22:23.146Z,4.47
2018-11-14T23:27:26.417Z,5.40
2018-11-14T23:32:29.593Z,5.07
2018-11-14T23:37:33.625Z,5.17
2018-11-14T23:42:36.789Z,5.50
2018-11-14T23:47:40.369Z,5.27
2018-11-14T23:52:44.933Z,5.33
2018-11-14T23:57:48.178Z,6.03
